Saturday, August 18, 2018, 3:18 AM EDT
Back to Local

KBGR, Bangor Int'l Airport

Location: Bangor, ME, United States Lat: 44.8
Local Time: 3:18 AM EDT ( 7:18 GMT) Lon: -68.817
Time Zone: US/Eastern Elev: 193 ft

Show me the last for .
Show Decoded

2018-08-18 02:53 METAR KBGR 180653Z 17007KT 6SM BR OVC003 21/20 A2981 RMK AO2 SLP090 T02060200 =
2018-08-18 01:53 METAR KBGR 180553Z 16006KT 6SM BR OVC004 21/19 A2984 RMK AO2 LTG DSNT SE RAE24
                 TSE09 SLP100 P0000 60003 T02060194 10206 20194 56032 =
2018-08-18 01:34 METAR KBGR 180534Z 17006KT 6SM BR OVC004 20/19 A2985 RMK AO2 LTG DSNT NE AND E
                 RAE24 TSE09 OCNL LTGIC DSNT NE-E P0000 T02000194 =
2018-08-18 01:18 METAR KBGR 180518Z 17005KT 3SM -RA BR OVC005 20/19 A2985 RMK AO2 LTG DSNT E-S
                 TSE09 OCNL LTGIC DSNT NE-SE P0000 T02000194 =
2018-08-18 01:06 METAR KBGR 180506Z 17007KT 3SM -TSRA BR OVC005 20/19 A2986 RMK AO2 LTG DSNT
                 ALQDS CIG 003V009 OCNL LTGICCC N-NE TS N-NE MOV E P0000 T02000194 =
2018-08-18 00:53 METAR KBGR 180453Z 18005KT 2 1/2SM -TSRA BR OVC006CB 20/19 A2987 RMK AO2 LTG
                 DSNT N AND S RAB29 TSE42B44 SLP111 OCNL LTGIC NW-N TS NW-N MOV E P0003 T02000194
                 402560111 =
2018-08-18 00:44 METAR KBGR 180444Z 19010KT 3SM -TSRA BR OVC006 20/19 A2988 RMK AO2 LTG DSNT N
                 RAB29 TSE42B44 OCNL LTGIC NE TS NE MOV E P0001 T02000189 =
2018-08-17 23:53 METAR KBGR 180353Z 17007KT 8SM BKN009 OVC065 20/18 A2989 RMK AO2 SLP120
                 T02000178 =
2018-08-17 22:53 METAR KBGR 180253Z 17008KT 9SM OVC009 19/17 A2993 RMK AO2 SLP132 60000 T01940172
                 58015 =
2018-08-17 22:25 METAR KBGR 180225Z 17009KT 10SM OVC009 19/17 A2994 RMK AO2 T01940167 =
2018-08-17 21:53 METAR KBGR 180153Z 17008KT 10SM BKN012 OVC070 19/16 A2996 RMK AO2 SLP141
                 T01940161 =
2018-08-17 21:32 METAR KBGR 180132Z 17006KT 10SM BKN013 BKN050 OVC100 19/16 A2996 RMK AO2
                 T01940156 =
2018-08-17 20:53 METAR KBGR 180053Z 16006KT 10SM SCT095 OVC120 19/16 A2997 RMK AO2 RAB26E38
                 SLP145 P0000 T01940161 =
2018-08-17 19:53 METAR KBGR 172353Z 16010KT 10SM SCT036 OVC200 20/17 A2997 RMK AO2 SLP148
                 T02000167 10256 20200 58009 =
2018-08-17 18:53 METAR KBGR 172253Z 17009KT 10SM SCT085 SCT110 OVC200 21/16 A2998 RMK AO2 SLP151
                 T02060161 =
2018-08-17 17:53 METAR KBGR 172153Z 18011KT 10SM BKN200 22/16 A2999 RMK AO2 SLP155 T02170156 =
2018-08-17 16:53 METAR KBGR 172053Z 20011KT 10SM BKN200 23/17 A3000 RMK AO2 SLP157 T02330167
                 58017 =
2018-08-17 15:53 METAR KBGR 171953Z 18011KT 10SM BKN200 24/16 A3002 RMK AO2 SLP164 T02390161 =
2018-08-17 14:53 METAR KBGR 171853Z 16008KT 10SM FEW037 BKN200 25/16 A3004 RMK AO2 SLP168
                 T02500161 =
2018-08-17 13:53 METAR KBGR 171753Z 18008KT 10SM FEW030 BKN200 24/15 A3005 RMK AO2 SLP174
                 T02440150 10250 20167 58018 =
2018-08-17 12:53 METAR KBGR 171653Z 21008KT 10SM SCT030 24/14 A3007 RMK AO2 SLP181 T02440144 =
2018-08-17 11:53 METAR KBGR 171553Z 19009KT 10SM SCT030 23/14 A3009 RMK AO2 SLP186 T02330144 =
2018-08-17 10:53 METAR KBGR 171453Z 20006KT 10SM SCT023 23/16 A3011 RMK AO2 SLP191 T02280156
                 57011 =
2018-08-17 09:53 METAR KBGR 171353Z 20008KT 10SM FEW025 21/16 A3011 RMK AO2 SLP194 T02060161 =
2018-08-17 08:53 METAR KBGR 171253Z 21006KT 10SM FEW025 FEW075 19/16 A3013 RMK AO2 SLP200
                 T01890156 =
2018-08-17 07:53 METAR KBGR 171153Z COR 00000KT 10SM FEW060 17/13 A3014 RMK AO2 SLP204 T01670133
                 10167 20111 51011 =
2018-08-17 06:53 METAR KBGR 171053Z 00000KT 10SM SCT050 14/13 A3014 RMK AO2 SLP203 MIFG OV RIVER
                 SE-SW T01390128 =
2018-08-17 05:53 METAR KBGR 170953Z 00000KT 10SM SCT050 12/12 A3012 RMK AO2 SLP198 MIFG OV RIVER
                 SE-SW T01170117 =
2018-08-17 04:53 METAR KBGR 170853Z 00000KT 10SM CLR 13/12 A3011 RMK AO2 SLP191 T01280117 53004 =
2018-08-17 03:53 METAR KBGR 170753Z 00000KT 10SM CLR 12/12 A3010 RMK AO2 SLP190 T01220117 =

Support USWX by starting your Amazon purchase here.